sensor_id;sensor_type;location;lat;lon;timestamp;P1;durP1;ratioP1;P2;durP2;ratioP2
26530;SDS011;14201;43.188;24.160;2023-07-13T00:02:07;12.48;;;8.48;;
26530;SDS011;14201;43.188;24.160;2023-07-13T00:04:33;12.77;;;8.20;;
26530;SDS011;14201;43.188;24.160;2023-07-13T00:06:58;9.90;;;8.48;;
26530;SDS011;14201;43.188;24.160;2023-07-13T00:09:24;12.68;;;8.30;;
26530;SDS011;14201;43.188;24.160;2023-07-13T00:11:53;10.73;;;8.38;;
26530;SDS011;14201;43.188;24.160;2023-07-13T00:14:21;14.10;;;8.95;;
26530;SDS011;14201;43.188;24.160;2023-07-13T00:16:47;11.98;;;8.10;;
26530;SDS011;14201;43.188;24.160;2023-07-13T00:19:14;12.05;;;8.50;;
26530;SDS011;14201;43.188;24.160;2023-07-13T00:21:40;15.00;;;8.43;;
26530;SDS011;14201;43.188;24.160;2023-07-13T00:24:07;12.93;;;8.13;;
26530;SDS011;14201;43.188;24.160;2023-07-13T00:26:38;12.85;;;8.68;;
26530;SDS011;14201;43.188;24.160;2023-07-13T00:29:03;11.40;;;8.70;;
26530;SDS011;14201;43.188;24.160;2023-07-13T00:31:31;11.23;;;8.55;;
26530;SDS011;14201;43.188;24.160;2023-07-13T00:33:56;10.23;;;8.38;;
26530;SDS011;14201;43.188;24.160;2023-07-13T00:36:22;10.70;;;8.13;;
26530;SDS011;14201;43.188;24.160;2023-07-13T00:38:48;13.18;;;8.55;;
26530;SDS011;14201;43.188;24.160;2023-07-13T00:41:13;10.00;;;8.77;;
26530;SDS011;14201;43.188;24.160;2023-07-13T00:43:40;11.77;;;8.73;;
26530;SDS011;14201;43.188;24.160;2023-07-13T00:46:20;15.25;;;8.80;;
26530;SDS011;14201;43.188;24.160;2023-07-13T00:48:54;12.75;;;8.00;;
26530;SDS011;14201;43.188;24.160;2023-07-13T00:51:27;9.98;;;7.85;;
26530;SDS011;14201;43.188;24.160;2023-07-13T00:53:56;10.73;;;8.32;;
26530;SDS011;14201;43.188;24.160;2023-07-13T00:56:26;10.55;;;8.00;;
26530;SDS011;14201;43.188;24.160;2023-07-13T00:58:52;11.38;;;8.43;;
26530;SDS011;14201;43.188;24.160;2023-07-13T01:01:18;9.75;;;7.80;;
26530;SDS011;14201;43.188;24.160;2023-07-13T01:03:44;10.45;;;8.30;;
26530;SDS011;14201;43.188;24.160;2023-07-13T01:06:11;10.50;;;7.90;;
26530;SDS011;14201;43.188;24.160;2023-07-13T01:08:37;11.63;;;8.13;;
26530;SDS011;14201;43.188;24.160;2023-07-13T01:11:04;11.48;;;8.15;;
26530;SDS011;14201;43.188;24.160;2023-07-13T01:13:31;11.98;;;8.15;;
26530;SDS011;14201;43.188;24.160;2023-07-13T01:15:57;13.73;;;8.50;;
26530;SDS011;14201;43.188;24.160;2023-07-13T01:18:28;11.05;;;7.60;;
26530;SDS011;14201;43.188;24.160;2023-07-13T01:20:55;10.35;;;8.05;;
26530;SDS011;14201;43.188;24.160;2023-07-13T01:23:26;14.85;;;8.10;;
26530;SDS011;14201;43.188;24.160;2023-07-13T01:25:53;12.85;;;8.18;;
26530;SDS011;14201;43.188;24.160;2023-07-13T01:28:20;9.98;;;8.25;;
26530;SDS011;14201;43.188;24.160;2023-07-13T01:30:46;14.00;;;8.77;;
26530;SDS011;14201;43.188;24.160;2023-07-13T01:33:13;12.80;;;8.43;;
26530;SDS011;14201;43.188;24.160;2023-07-13T01:35:41;12.38;;;8.57;;
26530;SDS011;14201;43.188;24.160;2023-07-13T01:38:07;10.68;;;8.30;;
26530;SDS011;14201;43.188;24.160;2023-07-13T01:40:34;10.65;;;8.43;;
26530;SDS011;14201;43.188;24.160;2023-07-13T01:43:00;11.70;;;8.00;;
26530;SDS011;14201;43.188;24.160;2023-07-13T01:45:25;13.52;;;7.75;;
26530;SDS011;14201;43.188;24.160;2023-07-13T01:47:51;18.63;;;8.40;;
26530;SDS011;14201;43.188;24.160;2023-07-13T01:50:17;10.60;;;8.18;;
26530;SDS011;14201;43.188;24.160;2023-07-13T01:52:43;12.80;;;8.07;;
26530;SDS011;14201;43.188;24.160;2023-07-13T01:55:08;8.82;;;7.70;;
26530;SDS011;14201;43.188;24.160;2023-07-13T01:57:34;10.90;;;7.63;;
26530;SDS011;14201;43.188;24.160;2023-07-13T02:00:01;11.35;;;8.40;;
26530;SDS011;14201;43.188;24.160;2023-07-13T02:02:29;11.32;;;8.13;;
26530;SDS011;14201;43.188;24.160;2023-07-13T02:04:55;9.23;;;7.50;;
26530;SDS011;14201;43.188;24.160;2023-07-13T02:07:21;9.50;;;7.68;;
26530;SDS011;14201;43.188;24.160;2023-07-13T02:09:48;21.20;;;7.90;;
26530;SDS011;14201;43.188;24.160;2023-07-13T02:12:13;10.60;;;7.50;;
26530;SDS011;14201;43.188;24.160;2023-07-13T02:14:39;15.18;;;7.80;;
26530;SDS011;14201;43.188;24.160;2023-07-13T02:17:05;11.15;;;8.00;;
26530;SDS011;14201;43.188;24.160;2023-07-13T02:19:31;12.43;;;7.20;;
26530;SDS011;14201;43.188;24.160;2023-07-13T02:21:57;10.18;;;7.30;;
26530;SDS011;14201;43.188;24.160;2023-07-13T02:24:23;9.50;;;7.40;;
26530;SDS011;14201;43.188;24.160;2023-07-13T02:26:48;10.80;;;7.07;;
26530;SDS011;14201;43.188;24.160;2023-07-13T02:29:14;9.57;;;6.95;;
26530;SDS011;14201;43.188;24.160;2023-07-13T02:31:39;9.48;;;7.55;;
26530;SDS011;14201;43.188;24.160;2023-07-13T02:34:05;17.98;;;7.35;;
26530;SDS011;14201;43.188;24.160;2023-07-13T02:36:31;11.52;;;7.47;;
26530;SDS011;14201;43.188;24.160;2023-07-13T02:39:00;10.23;;;7.40;;
26530;SDS011;14201;43.188;24.160;2023-07-13T02:41:28;13.02;;;7.25;;
26530;SDS011;14201;43.188;24.160;2023-07-13T02:43:54;8.68;;;7.43;;
26530;SDS011;14201;43.188;24.160;2023-07-13T02:46:28;11.40;;;7.07;;
26530;SDS011;14201;43.188;24.160;2023-07-13T02:48:54;10.98;;;7.22;;
26530;SDS011;14201;43.188;24.160;2023-07-13T02:51:20;8.88;;;7.88;;
26530;SDS011;14201;43.188;24.160;2023-07-13T02:53:45;8.77;;;7.53;;
26530;SDS011;14201;43.188;24.160;2023-07-13T02:56:11;9.02;;;7.40;;
26530;SDS011;14201;43.188;24.160;2023-07-13T02:58:37;19.80;;;7.80;;
26530;SDS011;14201;43.188;24.160;2023-07-13T03:01:07;19.27;;;7.53;;
26530;SDS011;14201;43.188;24.160;2023-07-13T03:03:34;12.40;;;7.68;;
26530;SDS011;14201;43.188;24.160;2023-07-13T03:06:00;9.45;;;7.30;;
26530;SDS011;14201;43.188;24.160;2023-07-13T03:08:27;9.70;;;7.05;;
26530;SDS011;14201;43.188;24.160;2023-07-13T03:11:05;14.00;;;7.47;;
26530;SDS011;14201;43.188;24.160;2023-07-13T03:13:36;8.40;;;7.50;;
26530;SDS011;14201;43.188;24.160;2023-07-13T03:16:03;13.30;;;7.28;;
26530;SDS011;14201;43.188;24.160;2023-07-13T03:18:29;9.68;;;7.57;;
26530;SDS011;14201;43.188;24.160;2023-07-13T03:20:55;8.45;;;6.63;;
26530;SDS011;14201;43.188;24.160;2023-07-13T03:23:21;10.88;;;7.25;;
26530;SDS011;14201;43.188;24.160;2023-07-13T03:25:47;12.95;;;7.38;;
26530;SDS011;14201;43.188;24.160;2023-07-13T03:28:13;10.95;;;7.00;;
26530;SDS011;14201;43.188;24.160;2023-07-13T03:30:40;10.70;;;7.22;;
26530;SDS011;14201;43.188;24.160;2023-07-13T03:33:06;9.10;;;7.05;;
26530;SDS011;14201;43.188;24.160;2023-07-13T03:35:31;11.07;;;7.50;;
26530;SDS011;14201;43.188;24.160;2023-07-13T03:37:58;16.73;;;7.53;;
26530;SDS011;14201;43.188;24.160;2023-07-13T03:40:25;18.05;;;6.78;;
26530;SDS011;14201;43.188;24.160;2023-07-13T03:42:51;9.25;;;6.90;;
26530;SDS011;14201;43.188;24.160;2023-07-13T03:45:17;9.95;;;7.28;;
26530;SDS011;14201;43.188;24.160;2023-07-13T03:47:43;8.98;;;6.90;;
26530;SDS011;14201;43.188;24.160;2023-07-13T03:50:09;8.25;;;7.13;;
26530;SDS011;14201;43.188;24.160;2023-07-13T03:52:35;8.85;;;6.90;;
26530;SDS011;14201;43.188;24.160;2023-07-13T03:55:00;8.48;;;6.25;;
26530;SDS011;14201;43.188;24.160;2023-07-13T03:57:26;14.82;;;6.53;;
26530;SDS011;14201;43.188;24.160;2023-07-13T03:59:52;15.38;;;8.07;;
26530;SDS011;14201;43.188;24.160;2023-07-13T04:02:18;9.13;;;6.75;;
26530;SDS011;14201;43.188;24.160;2023-07-13T04:04:43;8.07;;;6.15;;
26530;SDS011;14201;43.188;24.160;2023-07-13T04:07:09;14.00;;;6.50;;
26530;SDS011;14201;43.188;24.160;2023-07-13T04:09:35;9.65;;;6.20;;
26530;SDS011;14201;43.188;24.160;2023-07-13T04:12:01;11.45;;;6.97;;
26530;SDS011;14201;43.188;24.160;2023-07-13T04:21:44;12.23;;;6.30;;
26530;SDS011;14201;43.188;24.160;2023-07-13T04:24:10;10.07;;;6.05;;
26530;SDS011;14201;43.188;24.160;2023-07-13T04:26:36;11.07;;;6.10;;
26530;SDS011;14201;43.188;24.160;2023-07-13T04:29:03;6.65;;;5.97;;
26530;SDS011;14201;43.188;24.160;2023-07-13T04:31:30;9.93;;;5.75;;
26530;SDS011;14201;43.188;24.160;2023-07-13T04:33:56;11.82;;;6.35;;
26530;SDS011;14201;43.188;24.160;2023-07-13T04:36:21;10.43;;;6.00;;
26530;SDS011;14201;43.188;24.160;2023-07-13T04:38:47;7.05;;;5.65;;
26530;SDS011;14201;43.188;24.160;2023-07-13T04:41:14;7.80;;;6.07;;
26530;SDS011;14201;43.188;24.160;2023-07-13T04:43:40;9.98;;;5.88;;
26530;SDS011;14201;43.188;24.160;2023-07-13T04:46:07;7.03;;;5.85;;
26530;SDS011;14201;43.188;24.160;2023-07-13T04:48:36;12.32;;;5.88;;
26530;SDS011;14201;43.188;24.160;2023-07-13T04:51:02;8.65;;;5.63;;
26530;SDS011;14201;43.188;24.160;2023-07-13T04:53:28;12.02;;;5.65;;
26530;SDS011;14201;43.188;24.160;2023-07-13T04:55:55;12.25;;;5.97;;
26530;SDS011;14201;43.188;24.160;2023-07-13T04:58:21;11.02;;;5.38;;
26530;SDS011;14201;43.188;24.160;2023-07-13T05:00:48;13.82;;;6.07;;
26530;SDS011;14201;43.188;24.160;2023-07-13T05:03:13;7.50;;;5.35;;
26530;SDS011;14201;43.188;24.160;2023-07-13T05:05:39;11.50;;;5.40;;
26530;SDS011;14201;43.188;24.160;2023-07-13T05:08:04;10.35;;;5.43;;
26530;SDS011;14201;43.188;24.160;2023-07-13T05:10:30;16.95;;;6.15;;
26530;SDS011;14201;43.188;24.160;2023-07-13T05:12:56;8.32;;;5.32;;
26530;SDS011;14201;43.188;24.160;2023-07-13T05:15:22;12.40;;;5.90;;
26530;SDS011;14201;43.188;24.160;2023-07-13T05:17:48;8.90;;;5.82;;
26530;SDS011;14201;43.188;24.160;2023-07-13T05:20:15;10.15;;;5.70;;
26530;SDS011;14201;43.188;24.160;2023-07-13T05:22:41;7.72;;;5.47;;
26530;SDS011;14201;43.188;24.160;2023-07-13T05:25:08;7.97;;;5.10;;
26530;SDS011;14201;43.188;24.160;2023-07-13T05:27:34;9.63;;;5.18;;
26530;SDS011;14201;43.188;24.160;2023-07-13T05:30:01;13.35;;;5.38;;
26530;SDS011;14201;43.188;24.160;2023-07-13T05:32:28;9.60;;;5.13;;
26530;SDS011;14201;43.188;24.160;2023-07-13T05:34:54;6.68;;;5.07;;
26530;SDS011;14201;43.188;24.160;2023-07-13T06:26:00;8.55;;;4.78;;
26530;SDS011;14201;43.188;24.160;2023-07-13T06:28:29;6.15;;;4.18;;
26530;SDS011;14201;43.188;24.160;2023-07-13T06:30:58;9.38;;;4.50;;
26530;SDS011;14201;43.188;24.160;2023-07-13T06:33:24;7.63;;;4.60;;
26530;SDS011;14201;43.188;24.160;2023-07-13T06:35:50;10.70;;;4.85;;
26530;SDS011;14201;43.188;24.160;2023-07-13T06:38:16;13.45;;;4.60;;
26530;SDS011;14201;43.188;24.160;2023-07-13T06:40:41;7.40;;;4.35;;
26530;SDS011;14201;43.188;24.160;2023-07-13T06:43:07;6.32;;;4.13;;
26530;SDS011;14201;43.188;24.160;2023-07-13T06:45:36;5.20;;;4.25;;
26530;SDS011;14201;43.188;24.160;2023-07-13T06:48:06;6.03;;;4.05;;
26530;SDS011;14201;43.188;24.160;2023-07-13T06:50:33;6.68;;;3.63;;
26530;SDS011;14201;43.188;24.160;2023-07-13T06:52:58;7.45;;;4.00;;
26530;SDS011;14201;43.188;24.160;2023-07-13T06:55:24;7.90;;;4.15;;
26530;SDS011;14201;43.188;24.160;2023-07-13T06:57:50;8.63;;;3.90;;
26530;SDS011;14201;43.188;24.160;2023-07-13T07:00:16;8.85;;;4.13;;
26530;SDS011;14201;43.188;24.160;2023-07-13T07:02:42;4.95;;;4.10;;
26530;SDS011;14201;43.188;24.160;2023-07-13T07:05:07;10.95;;;4.13;;
26530;SDS011;14201;43.188;24.160;2023-07-13T07:07:33;10.23;;;4.20;;
26530;SDS011;14201;43.188;24.160;2023-07-13T07:10:00;8.23;;;3.70;;
26530;SDS011;14201;43.188;24.160;2023-07-13T07:12:26;15.65;;;4.07;;
26530;SDS011;14201;43.188;24.160;2023-07-13T07:14:52;8.43;;;4.32;;
26530;SDS011;14201;43.188;24.160;2023-07-13T07:17:18;7.25;;;3.65;;
26530;SDS011;14201;43.188;24.160;2023-07-13T07:19:44;9.00;;;3.67;;
26530;SDS011;14201;43.188;24.160;2023-07-13T07:22:09;7.10;;;3.53;;
26530;SDS011;14201;43.188;24.160;2023-07-13T07:24:35;7.10;;;3.53;;
26530;SDS011;14201;43.188;24.160;2023-07-13T07:27:01;5.82;;;3.47;;
26530;SDS011;14201;43.188;24.160;2023-07-13T07:29:27;6.47;;;3.53;;
26530;SDS011;14201;43.188;24.160;2023-07-13T07:31:53;6.30;;;3.88;;
26530;SDS011;14201;43.188;24.160;2023-07-13T07:34:19;142.68;;;9.65;;
26530;SDS011;14201;43.188;24.160;2023-07-13T07:36:44;4.30;;;3.17;;
26530;SDS011;14201;43.188;24.160;2023-07-13T07:39:10;6.30;;;2.92;;
26530;SDS011;14201;43.188;24.160;2023-07-13T07:41:36;6.75;;;3.38;;
26530;SDS011;14201;43.188;24.160;2023-07-13T07:44:03;9.40;;;3.60;;
26530;SDS011;14201;43.188;24.160;2023-07-13T07:46:29;10.02;;;3.45;;
26530;SDS011;14201;43.188;24.160;2023-07-13T07:48:55;9.40;;;3.58;;
26530;SDS011;14201;43.188;24.160;2023-07-13T07:51:21;5.20;;;3.63;;
26530;SDS011;14201;43.188;24.160;2023-07-13T07:53:47;4.35;;;3.28;;
26530;SDS011;14201;43.188;24.160;2023-07-13T07:56:13;7.95;;;3.63;;
26530;SDS011;14201;43.188;24.160;2023-07-13T07:58:41;6.85;;;2.80;;
26530;SDS011;14201;43.188;24.160;2023-07-13T08:01:07;6.38;;;3.30;;
26530;SDS011;14201;43.188;24.160;2023-07-13T08:03:33;5.55;;;3.20;;
26530;SDS011;14201;43.188;24.160;2023-07-13T08:05:59;5.32;;;3.22;;
26530;SDS011;14201;43.188;24.160;2023-07-13T08:08:25;5.60;;;3.13;;
26530;SDS011;14201;43.188;24.160;2023-07-13T08:10:50;4.75;;;3.40;;
26530;SDS011;14201;43.188;24.160;2023-07-13T08:13:17;5.90;;;3.22;;
26530;SDS011;14201;43.188;24.160;2023-07-13T08:15:42;5.25;;;3.30;;
26530;SDS011;14201;43.188;24.160;2023-07-13T08:18:08;10.63;;;3.40;;
26530;SDS011;14201;43.188;24.160;2023-07-13T08:20:38;4.60;;;3.13;;
26530;SDS011;14201;43.188;24.160;2023-07-13T08:23:04;5.97;;;3.03;;
26530;SDS011;14201;43.188;24.160;2023-07-13T08:25:29;5.95;;;3.75;;
26530;SDS011;14201;43.188;24.160;2023-07-13T08:27:55;7.30;;;3.20;;
26530;SDS011;14201;43.188;24.160;2023-07-13T08:30:21;11.40;;;3.92;;
26530;SDS011;14201;43.188;24.160;2023-07-13T08:32:46;6.25;;;4.25;;
26530;SDS011;14201;43.188;24.160;2023-07-13T08:35:12;5.90;;;3.17;;
26530;SDS011;14201;43.188;24.160;2023-07-13T08:37:39;6.90;;;3.22;;
26530;SDS011;14201;43.188;24.160;2023-07-13T08:40:04;11.60;;;6.72;;
26530;SDS011;14201;43.188;24.160;2023-07-13T08:50:23;6.70;;;3.53;;
26530;SDS011;14201;43.188;24.160;2023-07-13T08:52:54;7.55;;;3.10;;
26530;SDS011;14201;43.188;24.160;2023-07-13T08:55:24;5.85;;;3.30;;
26530;SDS011;14201;43.188;24.160;2023-07-13T08:57:59;6.80;;;3.25;;
26530;SDS011;14201;43.188;24.160;2023-07-13T09:03:37;10.18;;;3.60;;
26530;SDS011;14201;43.188;24.160;2023-07-13T09:06:08;7.93;;;3.55;;
26530;SDS011;14201;43.188;24.160;2023-07-13T09:11:23;9.35;;;3.28;;
26530;SDS011;14201;43.188;24.160;2023-07-13T09:14:06;6.88;;;3.30;;
26530;SDS011;14201;43.188;24.160;2023-07-13T09:16:38;8.85;;;3.13;;
26530;SDS011;14201;43.188;24.160;2023-07-13T09:19:07;6.38;;;3.20;;
26530;SDS011;14201;43.188;24.160;2023-07-13T09:21:41;7.00;;;3.10;;
26530;SDS011;14201;43.188;24.160;2023-07-13T09:26:53;6.78;;;3.28;;
26530;SDS011;14201;43.188;24.160;2023-07-13T09:36:51;9.05;;;3.85;;
26530;SDS011;14201;43.188;24.160;2023-07-13T09:39:21;8.10;;;3.92;;
26530;SDS011;14201;43.188;24.160;2023-07-13T09:41:57;6.93;;;3.30;;
26530;SDS011;14201;43.188;24.160;2023-07-13T09:44:35;9.40;;;3.67;;
26530;SDS011;14201;43.188;24.160;2023-07-13T09:47:01;7.45;;;3.42;;
26530;SDS011;14201;43.188;24.160;2023-07-13T09:49:28;5.75;;;3.35;;
26530;SDS011;14201;43.188;24.160;2023-07-13T09:52:04;6.20;;;3.20;;
26530;SDS011;14201;43.188;24.160;2023-07-13T09:54:35;10.40;;;4.00;;
26530;SDS011;14201;43.188;24.160;2023-07-13T09:57:02;6.95;;;3.78;;
26530;SDS011;14201;43.188;24.160;2023-07-13T09:59:41;7.03;;;3.25;;
26530;SDS011;14201;43.188;24.160;2023-07-13T10:02:28;10.18;;;3.58;;
26530;SDS011;14201;43.188;24.160;2023-07-13T10:07:25;10.60;;;3.90;;
26530;SDS011;14201;43.188;24.160;2023-07-13T10:09:52;7.75;;;4.07;;
26530;SDS011;14201;43.188;24.160;2023-07-13T10:12:19;7.97;;;3.42;;
26530;SDS011;14201;43.188;24.160;2023-07-13T10:14:45;7.65;;;3.60;;
26530;SDS011;14201;43.188;24.160;2023-07-13T10:17:13;8.15;;;3.30;;
26530;SDS011;14201;43.188;24.160;2023-07-13T10:19:39;6.65;;;3.90;;
26530;SDS011;14201;43.188;24.160;2023-07-13T10:24:49;9.07;;;3.75;;
26530;SDS011;14201;43.188;24.160;2023-07-13T10:27:20;7.53;;;3.88;;
26530;SDS011;14201;43.188;24.160;2023-07-13T10:29:55;8.38;;;3.45;;
26530;SDS011;14201;43.188;24.160;2023-07-13T10:32:26;6.40;;;3.60;;
26530;SDS011;14201;43.188;24.160;2023-07-13T10:34:52;7.47;;;3.72;;
26530;SDS011;14201;43.188;24.160;2023-07-13T10:37:22;9.15;;;3.92;;
26530;SDS011;14201;43.188;24.160;2023-07-13T10:39:52;9.38;;;3.47;;
26530;SDS011;14201;43.188;24.160;2023-07-13T10:43:04;7.22;;;3.35;;
26530;SDS011;14201;43.188;24.160;2023-07-13T10:45:15;8.90;;;3.40;;
26530;SDS011;14201;43.188;24.160;2023-07-13T10:47:44;7.03;;;3.55;;
26530;SDS011;14201;43.188;24.160;2023-07-13T10:50:18;6.43;;;3.50;;
26530;SDS011;14201;43.188;24.160;2023-07-13T10:52:48;4.95;;;3.20;;
26530;SDS011;14201;43.188;24.160;2023-07-13T10:58:21;7.03;;;3.70;;
26530;SDS011;14201;43.188;24.160;2023-07-13T11:00:50;9.50;;;4.25;;
26530;SDS011;14201;43.188;24.160;2023-07-13T11:03:22;7.80;;;3.30;;
26530;SDS011;14201;43.188;24.160;2023-07-13T11:06:03;5.30;;;3.30;;
26530;SDS011;14201;43.188;24.160;2023-07-13T11:18:48;6.97;;;3.85;;
26530;SDS011;14201;43.188;24.160;2023-07-13T11:21:34;8.98;;;3.30;;
26530;SDS011;14201;43.188;24.160;2023-07-13T11:24:04;6.72;;;3.20;;
26530;SDS011;14201;43.188;24.160;2023-07-13T11:31:54;5.80;;;3.28;;
26530;SDS011;14201;43.188;24.160;2023-07-13T11:34:40;8.70;;;3.17;;
26530;SDS011;14201;43.188;24.160;2023-07-13T11:37:13;6.60;;;3.38;;
26530;SDS011;14201;43.188;24.160;2023-07-13T11:39:43;6.70;;;3.42;;
26530;SDS011;14201;43.188;24.160;2023-07-13T11:42:15;6.70;;;3.10;;
26530;SDS011;14201;43.188;24.160;2023-07-13T11:44:43;9.70;;;4.25;;
26530;SDS011;14201;43.188;24.160;2023-07-13T11:49:45;7.95;;;3.03;;
26530;SDS011;14201;43.188;24.160;2023-07-13T11:52:15;12.95;;;4.05;;
26530;SDS011;14201;43.188;24.160;2023-07-13T11:54:48;6.13;;;3.57;;
26530;SDS011;14201;43.188;24.160;2023-07-13T12:00:03;7.18;;;3.70;;
26530;SDS011;14201;43.188;24.160;2023-07-13T12:02:46;6.45;;;3.50;;
26530;SDS011;14201;43.188;24.160;2023-07-13T12:05:15;7.93;;;3.42;;
26530;SDS011;14201;43.188;24.160;2023-07-13T12:07:46;6.05;;;3.55;;
26530;SDS011;14201;43.188;24.160;2023-07-13T12:10:22;8.60;;;3.30;;
26530;SDS011;14201;43.188;24.160;2023-07-13T12:13:03;8.43;;;3.80;;
26530;SDS011;14201;43.188;24.160;2023-07-13T12:15:38;7.40;;;3.17;;
26530;SDS011;14201;43.188;24.160;2023-07-13T12:18:16;6.18;;;3.42;;
26530;SDS011;14201;43.188;24.160;2023-07-13T12:20:45;7.18;;;3.30;;
26530;SDS011;14201;43.188;24.160;2023-07-13T12:25:53;7.15;;;3.30;;
26530;SDS011;14201;43.188;24.160;2023-07-13T12:28:22;7.07;;;3.95;;
26530;SDS011;14201;43.188;24.160;2023-07-13T12:31:00;8.50;;;3.83;;
26530;SDS011;14201;43.188;24.160;2023-07-13T12:33:28;10.35;;;4.00;;
26530;SDS011;14201;43.188;24.160;2023-07-13T12:35:55;9.02;;;3.60;;
26530;SDS011;14201;43.188;24.160;2023-07-13T12:38:24;8.20;;;3.63;;
26530;SDS011;14201;43.188;24.160;2023-07-13T12:40:51;9.03;;;3.63;;
26530;SDS011;14201;43.188;24.160;2023-07-13T12:43:17;8.38;;;3.50;;
26530;SDS011;14201;43.188;24.160;2023-07-13T12:45:56;11.00;;;4.32;;
26530;SDS011;14201;43.188;24.160;2023-07-13T12:48:24;8.23;;;3.50;;
26530;SDS011;14201;43.188;24.160;2023-07-13T12:50:50;8.80;;;3.63;;
26530;SDS011;14201;43.188;24.160;2023-07-13T12:53:17;15.32;;;12.88;;
26530;SDS011;14201;43.188;24.160;2023-07-13T12:55:50;11.18;;;4.55;;
26530;SDS011;14201;43.188;24.160;2023-07-13T12:58:24;19.30;;;3.83;;
26530;SDS011;14201;43.188;24.160;2023-07-13T13:00:53;7.03;;;3.70;;
26530;SDS011;14201;43.188;24.160;2023-07-13T13:03:23;8.57;;;3.58;;
26530;SDS011;14201;43.188;24.160;2023-07-13T13:08:43;7.28;;;3.78;;
26530;SDS011;14201;43.188;24.160;2023-07-13T13:11:11;7.03;;;3.60;;
26530;SDS011;14201;43.188;24.160;2023-07-13T13:13:36;7.20;;;3.55;;
26530;SDS011;14201;43.188;24.160;2023-07-13T13:16:04;12.23;;;3.78;;
26530;SDS011;14201;43.188;24.160;2023-07-13T13:18:37;8.30;;;3.80;;
26530;SDS011;14201;43.188;24.160;2023-07-13T13:21:02;12.90;;;3.90;;
26530;SDS011;14201;43.188;24.160;2023-07-13T13:23:28;11.45;;;3.72;;
26530;SDS011;14201;43.188;24.160;2023-07-13T13:25:54;7.47;;;3.63;;
26530;SDS011;14201;43.188;24.160;2023-07-13T13:28:20;9.95;;;3.70;;
26530;SDS011;14201;43.188;24.160;2023-07-13T13:30:47;8.48;;;3.67;;
26530;SDS011;14201;43.188;24.160;2023-07-13T13:33:15;13.75;;;4.35;;
26530;SDS011;14201;43.188;24.160;2023-07-13T13:35:43;9.07;;;3.50;;
26530;SDS011;14201;43.188;24.160;2023-07-13T13:38:10;10.35;;;4.03;;
26530;SDS011;14201;43.188;24.160;2023-07-13T13:40:43;11.20;;;4.38;;
26530;SDS011;14201;43.188;24.160;2023-07-13T13:43:17;8.20;;;3.78;;
26530;SDS011;14201;43.188;24.160;2023-07-13T13:45:43;8.65;;;4.10;;
26530;SDS011;14201;43.188;24.160;2023-07-13T13:48:15;9.70;;;3.78;;
26530;SDS011;14201;43.188;24.160;2023-07-13T13:50:43;6.72;;;3.42;;
26530;SDS011;14201;43.188;24.160;2023-07-13T13:53:12;9.68;;;3.80;;
26530;SDS011;14201;43.188;24.160;2023-07-13T13:55:41;6.80;;;3.50;;
26530;SDS011;14201;43.188;24.160;2023-07-13T13:58:08;12.25;;;4.07;;
26530;SDS011;14201;43.188;24.160;2023-07-13T14:00:35;9.95;;;3.80;;
26530;SDS011;14201;43.188;24.160;2023-07-13T14:03:01;12.32;;;4.65;;
26530;SDS011;14201;43.188;24.160;2023-07-13T14:05:27;10.32;;;3.83;;
26530;SDS011;14201;43.188;24.160;2023-07-13T14:07:53;7.57;;;3.78;;
26530;SDS011;14201;43.188;24.160;2023-07-13T14:10:20;12.00;;;4.13;;
26530;SDS011;14201;43.188;24.160;2023-07-13T14:12:47;10.55;;;3.78;;
26530;SDS011;14201;43.188;24.160;2023-07-13T14:15:22;12.32;;;3.70;;
26530;SDS011;14201;43.188;24.160;2023-07-13T14:17:51;5.63;;;3.80;;
26530;SDS011;14201;43.188;24.160;2023-07-13T14:20:18;8.68;;;4.05;;
26530;SDS011;14201;43.188;24.160;2023-07-13T14:22:45;10.65;;;3.97;;
26530;SDS011;14201;43.188;24.160;2023-07-13T14:25:12;7.53;;;4.20;;
26530;SDS011;14201;43.188;24.160;2023-07-13T14:27:38;9.93;;;4.57;;
26530;SDS011;14201;43.188;24.160;2023-07-13T14:30:12;9.32;;;3.60;;
26530;SDS011;14201;43.188;24.160;2023-07-13T14:32:43;11.95;;;4.13;;
26530;SDS011;14201;43.188;24.160;2023-07-13T14:35:13;10.23;;;3.40;;
26530;SDS011;14201;43.188;24.160;2023-07-13T14:37:40;10.18;;;3.83;;
26530;SDS011;14201;43.188;24.160;2023-07-13T14:40:13;10.68;;;4.15;;
26530;SDS011;14201;43.188;24.160;2023-07-13T14:42:40;8.80;;;4.20;;
26530;SDS011;14201;43.188;24.160;2023-07-13T14:45:12;11.52;;;3.88;;
26530;SDS011;14201;43.188;24.160;2023-07-13T14:47:38;11.27;;;4.18;;
26530;SDS011;14201;43.188;24.160;2023-07-13T14:50:04;9.95;;;4.07;;
26530;SDS011;14201;43.188;24.160;2023-07-13T14:52:30;9.10;;;3.83;;
26530;SDS011;14201;43.188;24.160;2023-07-13T14:54:56;8.93;;;4.20;;
26530;SDS011;14201;43.188;24.160;2023-07-13T14:57:21;7.82;;;3.88;;
26530;SDS011;14201;43.188;24.160;2023-07-13T14:59:47;7.88;;;3.83;;
26530;SDS011;14201;43.188;24.160;2023-07-13T15:04:54;9.82;;;4.32;;
26530;SDS011;14201;43.188;24.160;2023-07-13T15:07:20;12.20;;;3.78;;
26530;SDS011;14201;43.188;24.160;2023-07-13T15:09:46;11.30;;;3.80;;
26530;SDS011;14201;43.188;24.160;2023-07-13T15:12:13;8.68;;;4.05;;
26530;SDS011;14201;43.188;24.160;2023-07-13T15:14:39;10.25;;;4.55;;
26530;SDS011;14201;43.188;24.160;2023-07-13T15:17:05;6.60;;;3.88;;
26530;SDS011;14201;43.188;24.160;2023-07-13T15:19:43;10.47;;;4.17;;
26530;SDS011;14201;43.188;24.160;2023-07-13T15:22:09;10.25;;;3.85;;
26530;SDS011;14201;43.188;24.160;2023-07-13T15:24:35;17.75;;;4.00;;
26530;SDS011;14201;43.188;24.160;2023-07-13T15:27:02;9.57;;;4.00;;
26530;SDS011;14201;43.188;24.160;2023-07-13T15:29:29;7.55;;;3.88;;
26530;SDS011;14201;43.188;24.160;2023-07-13T15:31:55;14.95;;;4.55;;
26530;SDS011;14201;43.188;24.160;2023-07-13T15:34:21;11.70;;;4.40;;
26530;SDS011;14201;43.188;24.160;2023-07-13T15:36:51;9.68;;;3.55;;
26530;SDS011;14201;43.188;24.160;2023-07-13T15:39:17;11.68;;;4.07;;
26530;SDS011;14201;43.188;24.160;2023-07-13T15:41:43;9.40;;;3.80;;
26530;SDS011;14201;43.188;24.160;2023-07-13T15:46:56;9.93;;;3.85;;
26530;SDS011;14201;43.188;24.160;2023-07-13T15:49:22;11.02;;;4.18;;
26530;SDS011;14201;43.188;24.160;2023-07-13T15:51:47;9.40;;;4.07;;
26530;SDS011;14201;43.188;24.160;2023-07-13T15:54:14;10.45;;;4.10;;
26530;SDS011;14201;43.188;24.160;2023-07-13T15:56:42;10.30;;;4.05;;
26530;SDS011;14201;43.188;24.160;2023-07-13T15:59:13;10.48;;;4.05;;
26530;SDS011;14201;43.188;24.160;2023-07-13T16:01:39;13.00;;;4.25;;
26530;SDS011;14201;43.188;24.160;2023-07-13T16:04:07;10.23;;;3.95;;
26530;SDS011;14201;43.188;24.160;2023-07-13T16:06:35;11.50;;;4.18;;
26530;SDS011;14201;43.188;24.160;2023-07-13T16:09:04;13.00;;;4.15;;
26530;SDS011;14201;43.188;24.160;2023-07-13T16:11:36;8.30;;;3.92;;
26530;SDS011;14201;43.188;24.160;2023-07-13T16:14:03;9.25;;;4.18;;
26530;SDS011;14201;43.188;24.160;2023-07-13T16:16:30;17.98;;;4.30;;
26530;SDS011;14201;43.188;24.160;2023-07-13T16:18:58;8.18;;;3.97;;
26530;SDS011;14201;43.188;24.160;2023-07-13T16:21:32;13.68;;;4.57;;
26530;SDS011;14201;43.188;24.160;2023-07-13T16:24:00;13.77;;;4.30;;
26530;SDS011;14201;43.188;24.160;2023-07-13T16:26:28;13.30;;;4.10;;
26530;SDS011;14201;43.188;24.160;2023-07-13T16:29:11;14.00;;;4.18;;
26530;SDS011;14201;43.188;24.160;2023-07-13T16:31:38;10.60;;;4.20;;
26530;SDS011;14201;43.188;24.160;2023-07-13T16:34:04;10.45;;;4.30;;